sensor_id;sensor_type;location;lat;lon;timestamp;temperature;humidity
74822;DHT22;63353;48.702;8.884;2022-09-30T00:00:58;7.00;99.90
74822;DHT22;63353;48.702;8.884;2022-09-30T00:03:24;7.00;99.90
74822;DHT22;63353;48.702;8.884;2022-09-30T00:05:57;7.10;99.90
74822;DHT22;63353;48.702;8.884;2022-09-30T00:08:23;7.10;99.90
74822;DHT22;63353;48.702;8.884;2022-09-30T00:11:00;7.10;99.90
74822;DHT22;63353;48.702;8.884;2022-09-30T00:13:26;7.10;99.90
74822;DHT22;63353;48.702;8.884;2022-09-30T00:15:52;7.10;99.90
74822;DHT22;63353;48.702;8.884;2022-09-30T00:18:17;7.10;99.90
74822;DHT22;63353;48.702;8.884;2022-09-30T00:20:43;7.10;99.90
74822;DHT22;63353;48.702;8.884;2022-09-30T00:23:08;7.10;99.90
74822;DHT22;63353;48.702;8.884;2022-09-30T00:25:34;7.10;99.90
74822;DHT22;63353;48.702;8.884;2022-09-30T00:28:00;7.10;99.90
74822;DHT22;63353;48.702;8.884;2022-09-30T00:30:25;7.10;99.90
74822;DHT22;63353;48.702;8.884;2022-09-30T00:32:51;7.10;99.90
74822;DHT22;63353;48.702;8.884;2022-09-30T00:35:17;7.10;99.90
74822;DHT22;63353;48.702;8.884;2022-09-30T00:37:42;7.10;99.90
74822;DHT22;63353;48.702;8.884;2022-09-30T00:40:08;7.10;99.90
74822;DHT22;63353;48.702;8.884;2022-09-30T00:42:39;7.10;99.90
74822;DHT22;63353;48.702;8.884;2022-09-30T00:45:09;7.10;99.90
74822;DHT22;63353;48.702;8.884;2022-09-30T00:47:45;7.10;99.90
74822;DHT22;63353;48.702;8.884;2022-09-30T00:52:44;7.00;99.90
74822;DHT22;63353;48.702;8.884;2022-09-30T00:55:24;7.10;99.90
74822;DHT22;63353;48.702;8.884;2022-09-30T00:57:51;7.10;99.90
74822;DHT22;63353;48.702;8.884;2022-09-30T01:00:17;7.10;99.90
74822;DHT22;63353;48.702;8.884;2022-09-30T01:02:45;7.00;99.90
74822;DHT22;63353;48.702;8.884;2022-09-30T01:05:11;7.10;99.90
74822;DHT22;63353;48.702;8.884;2022-09-30T01:07:38;7.10;99.90
74822;DHT22;63353;48.702;8.884;2022-09-30T01:10:04;7.10;99.90
74822;DHT22;63353;48.702;8.884;2022-09-30T01:12:30;7.10;99.90
74822;DHT22;63353;48.702;8.884;2022-09-30T01:14:56;7.10;99.90
74822;DHT22;63353;48.702;8.884;2022-09-30T01:20:33;7.10;99.90
74822;DHT22;63353;48.702;8.884;2022-09-30T01:31:56;7.00;99.90
74822;DHT22;63353;48.702;8.884;2022-09-30T01:37:19;7.00;99.90
74822;DHT22;63353;48.702;8.884;2022-09-30T01:43:09;7.00;99.90
74822;DHT22;63353;48.702;8.884;2022-09-30T01:45:49;6.90;99.90
74822;DHT22;63353;48.702;8.884;2022-09-30T01:51:10;6.90;99.90
74822;DHT22;63353;48.702;8.884;2022-09-30T01:53:43;6.90;99.90
74822;DHT22;63353;48.702;8.884;2022-09-30T01:56:17;6.90;99.90
74822;DHT22;63353;48.702;8.884;2022-09-30T01:58:45;6.80;99.90
74822;DHT22;63353;48.702;8.884;2022-09-30T02:01:23;6.80;99.90
74822;DHT22;63353;48.702;8.884;2022-09-30T02:03:54;6.80;99.90
74822;DHT22;63353;48.702;8.884;2022-09-30T02:06:25;6.80;99.90
74822;DHT22;63353;48.702;8.884;2022-09-30T02:09:01;6.80;99.90
74822;DHT22;63353;48.702;8.884;2022-09-30T02:11:31;6.80;99.90
74822;DHT22;63353;48.702;8.884;2022-09-30T02:14:08;6.80;99.90
74822;DHT22;63353;48.702;8.884;2022-09-30T02:16:53;6.80;99.90
74822;DHT22;63353;48.702;8.884;2022-09-30T02:22:10;6.90;99.90
74822;DHT22;63353;48.702;8.884;2022-09-30T02:24:37;6.90;99.90
74822;DHT22;63353;48.702;8.884;2022-09-30T02:27:08;6.90;99.90
74822;DHT22;63353;48.702;8.884;2022-09-30T02:29:38;6.90;99.90
74822;DHT22;63353;48.702;8.884;2022-09-30T02:32:14;6.90;99.90
74822;DHT22;63353;48.702;8.884;2022-09-30T02:34:44;6.90;99.90
74822;DHT22;63353;48.702;8.884;2022-09-30T02:37:34;6.80;99.90
74822;DHT22;63353;48.702;8.884;2022-09-30T02:40:15;6.80;99.90
74822;DHT22;63353;48.702;8.884;2022-09-30T02:42:44;6.70;99.90
74822;DHT22;63353;48.702;8.884;2022-09-30T02:45:13;6.70;99.90
74822;DHT22;63353;48.702;8.884;2022-09-30T02:48:14;6.60;99.90
74822;DHT22;63353;48.702;8.884;2022-09-30T02:50:59;6.60;99.90
74822;DHT22;63353;48.702;8.884;2022-09-30T02:53:54;6.60;99.90
74822;DHT22;63353;48.702;8.884;2022-09-30T02:58:52;6.60;99.90
74822;DHT22;63353;48.702;8.884;2022-09-30T03:01:18;6.60;99.90
74822;DHT22;63353;48.702;8.884;2022-09-30T03:03:48;6.60;99.90
74822;DHT22;63353;48.702;8.884;2022-09-30T03:06:15;6.60;99.90
74822;DHT22;63353;48.702;8.884;2022-09-30T03:08:41;6.60;99.90
74822;DHT22;63353;48.702;8.884;2022-09-30T03:11:13;6.60;99.90
74822;DHT22;63353;48.702;8.884;2022-09-30T03:30:03;6.70;99.90
74822;DHT22;63353;48.702;8.884;2022-09-30T03:38:07;6.70;99.90
74822;DHT22;63353;48.702;8.884;2022-09-30T03:43:46;6.70;99.90
74822;DHT22;63353;48.702;8.884;2022-09-30T03:48:42;6.70;99.90
74822;DHT22;63353;48.702;8.884;2022-09-30T03:51:08;6.70;99.90
74822;DHT22;63353;48.702;8.884;2022-09-30T03:53:39;6.70;99.90
74822;DHT22;63353;48.702;8.884;2022-09-30T03:56:05;6.80;99.90
74822;DHT22;63353;48.702;8.884;2022-09-30T03:58:31;6.70;99.90
74822;DHT22;63353;48.702;8.884;2022-09-30T04:00:57;6.70;99.90
74822;DHT22;63353;48.702;8.884;2022-09-30T04:03:23;6.70;99.90
74822;DHT22;63353;48.702;8.884;2022-09-30T04:05:50;6.70;99.90
74822;DHT22;63353;48.702;8.884;2022-09-30T04:08:16;6.60;99.90
74822;DHT22;63353;48.702;8.884;2022-09-30T04:10:43;6.60;99.90
74822;DHT22;63353;48.702;8.884;2022-09-30T04:13:09;6.50;99.90
74822;DHT22;63353;48.702;8.884;2022-09-30T04:15:35;6.50;99.90
74822;DHT22;63353;48.702;8.884;2022-09-30T04:18:03;6.40;99.90
74822;DHT22;63353;48.702;8.884;2022-09-30T04:20:30;6.40;99.90
74822;DHT22;63353;48.702;8.884;2022-09-30T04:22:57;6.40;99.90
74822;DHT22;63353;48.702;8.884;2022-09-30T04:25:23;6.50;99.90
74822;DHT22;63353;48.702;8.884;2022-09-30T04:27:49;6.50;99.90
74822;DHT22;63353;48.702;8.884;2022-09-30T04:30:14;6.50;99.90
74822;DHT22;63353;48.702;8.884;2022-09-30T04:32:42;6.50;99.90
74822;DHT22;63353;48.702;8.884;2022-09-30T04:35:13;6.50;99.90
74822;DHT22;63353;48.702;8.884;2022-09-30T04:37:42;6.60;99.90
74822;DHT22;63353;48.702;8.884;2022-09-30T04:40:09;6.60;99.90
74822;DHT22;63353;48.702;8.884;2022-09-30T04:42:35;6.60;99.90
74822;DHT22;63353;48.702;8.884;2022-09-30T04:45:02;6.60;99.90
74822;DHT22;63353;48.702;8.884;2022-09-30T04:47:28;6.60;99.90
74822;DHT22;63353;48.702;8.884;2022-09-30T04:49:54;6.50;99.90
74822;DHT22;63353;48.702;8.884;2022-09-30T04:52:22;6.50;99.90
74822;DHT22;63353;48.702;8.884;2022-09-30T04:54:47;6.50;99.90
74822;DHT22;63353;48.702;8.884;2022-09-30T04:57:13;6.50;99.90
74822;DHT22;63353;48.702;8.884;2022-09-30T04:59:39;6.60;99.90
74822;DHT22;63353;48.702;8.884;2022-09-30T05:02:05;6.60;99.90
74822;DHT22;63353;48.702;8.884;2022-09-30T05:04:30;6.60;99.90
74822;DHT22;63353;48.702;8.884;2022-09-30T05:07:00;6.60;99.90
74822;DHT22;63353;48.702;8.884;2022-09-30T05:09:28;6.70;99.90
74822;DHT22;63353;48.702;8.884;2022-09-30T05:11:53;6.70;99.90
74822;DHT22;63353;48.702;8.884;2022-09-30T05:14:19;6.70;99.90
74822;DHT22;63353;48.702;8.884;2022-09-30T05:16:45;6.70;99.90
74822;DHT22;63353;48.702;8.884;2022-09-30T05:19:10;6.70;99.90
74822;DHT22;63353;48.702;8.884;2022-09-30T05:21:36;6.70;99.90
74822;DHT22;63353;48.702;8.884;2022-09-30T05:24:02;6.80;99.90
74822;DHT22;63353;48.702;8.884;2022-09-30T05:26:27;6.80;99.90
74822;DHT22;63353;48.702;8.884;2022-09-30T05:28:53;6.80;99.90
74822;DHT22;63353;48.702;8.884;2022-09-30T05:31:19;6.80;99.90
74822;DHT22;63353;48.702;8.884;2022-09-30T05:33:47;6.80;99.90
74822;DHT22;63353;48.702;8.884;2022-09-30T05:36:14;6.80;99.90
74822;DHT22;63353;48.702;8.884;2022-09-30T05:38:41;6.80;99.90
74822;DHT22;63353;48.702;8.884;2022-09-30T05:41:08;6.90;99.90
74822;DHT22;63353;48.702;8.884;2022-09-30T05:43:40;6.90;99.90
74822;DHT22;63353;48.702;8.884;2022-09-30T05:46:06;6.90;99.90
74822;DHT22;63353;48.702;8.884;2022-09-30T05:48:32;6.90;99.90
74822;DHT22;63353;48.702;8.884;2022-09-30T05:50:58;7.00;99.90
74822;DHT22;63353;48.702;8.884;2022-09-30T05:53:26;7.00;99.90
74822;DHT22;63353;48.702;8.884;2022-09-30T05:55:53;7.10;99.90
74822;DHT22;63353;48.702;8.884;2022-09-30T05:58:19;7.10;99.90
74822;DHT22;63353;48.702;8.884;2022-09-30T06:00:47;7.20;99.90
74822;DHT22;63353;48.702;8.884;2022-09-30T06:03:13;7.20;99.90
74822;DHT22;63353;48.702;8.884;2022-09-30T06:05:39;7.30;99.90
74822;DHT22;63353;48.702;8.884;2022-09-30T06:08:05;7.30;99.90
74822;DHT22;63353;48.702;8.884;2022-09-30T06:10:34;7.40;99.90
74822;DHT22;63353;48.702;8.884;2022-09-30T06:13:04;7.40;99.90
74822;DHT22;63353;48.702;8.884;2022-09-30T06:15:30;7.50;99.90
74822;DHT22;63353;48.702;8.884;2022-09-30T06:17:55;7.60;99.90
74822;DHT22;63353;48.702;8.884;2022-09-30T06:20:21;7.70;99.90
74822;DHT22;63353;48.702;8.884;2022-09-30T06:22:47;7.80;99.90
74822;DHT22;63353;48.702;8.884;2022-09-30T06:25:13;7.80;99.90
74822;DHT22;63353;48.702;8.884;2022-09-30T06:27:39;7.80;99.90
74822;DHT22;63353;48.702;8.884;2022-09-30T06:30:08;7.90;99.90
74822;DHT22;63353;48.702;8.884;2022-09-30T06:32:34;7.90;99.90
74822;DHT22;63353;48.702;8.884;2022-09-30T06:35:00;8.00;99.90
74822;DHT22;63353;48.702;8.884;2022-09-30T06:37:27;8.10;99.90
74822;DHT22;63353;48.702;8.884;2022-09-30T06:39:53;8.10;99.90
74822;DHT22;63353;48.702;8.884;2022-09-30T06:42:19;8.20;99.90
74822;DHT22;63353;48.702;8.884;2022-09-30T06:44:44;8.30;99.90
74822;DHT22;63353;48.702;8.884;2022-09-30T06:47:12;8.30;99.90
74822;DHT22;63353;48.702;8.884;2022-09-30T06:49:38;8.40;99.90
74822;DHT22;63353;48.702;8.884;2022-09-30T06:52:05;8.40;99.90
74822;DHT22;63353;48.702;8.884;2022-09-30T06:54:30;8.50;99.90
74822;DHT22;63353;48.702;8.884;2022-09-30T06:56:56;8.60;99.90
74822;DHT22;63353;48.702;8.884;2022-09-30T06:59:25;8.70;99.90
74822;DHT22;63353;48.702;8.884;2022-09-30T07:01:51;8.70;99.90
74822;DHT22;63353;48.702;8.884;2022-09-30T07:04:18;8.80;99.90
74822;DHT22;63353;48.702;8.884;2022-09-30T07:06:44;8.80;99.90
74822;DHT22;63353;48.702;8.884;2022-09-30T07:09:10;8.90;99.90
74822;DHT22;63353;48.702;8.884;2022-09-30T07:11:37;8.90;99.90
74822;DHT22;63353;48.702;8.884;2022-09-30T07:14:04;8.90;99.90
74822;DHT22;63353;48.702;8.884;2022-09-30T07:16:30;9.00;99.90
74822;DHT22;63353;48.702;8.884;2022-09-30T07:19:02;9.00;99.90
74822;DHT22;63353;48.702;8.884;2022-09-30T07:21:28;9.10;99.90
74822;DHT22;63353;48.702;8.884;2022-09-30T07:23:56;9.20;99.20
74822;DHT22;63353;48.702;8.884;2022-09-30T07:26:23;9.20;99.20
74822;DHT22;63353;48.702;8.884;2022-09-30T07:28:49;9.20;99.10
74822;DHT22;63353;48.702;8.884;2022-09-30T07:33:44;9.20;98.90
74822;DHT22;63353;48.702;8.884;2022-09-30T07:36:11;9.20;99.00
74822;DHT22;63353;48.702;8.884;2022-09-30T07:38:39;9.20;99.20
74822;DHT22;63353;48.702;8.884;2022-09-30T07:41:09;9.20;98.60
74822;DHT22;63353;48.702;8.884;2022-09-30T07:43:36;9.30;98.90
74822;DHT22;63353;48.702;8.884;2022-09-30T07:46:22;9.40;99.20
74822;DHT22;63353;48.702;8.884;2022-09-30T07:48:52;9.50;99.40
74822;DHT22;63353;48.702;8.884;2022-09-30T07:51:37;9.60;97.80
74822;DHT22;63353;48.702;8.884;2022-09-30T07:54:07;9.70;97.90
74822;DHT22;63353;48.702;8.884;2022-09-30T07:56:33;9.70;99.10
74822;DHT22;63353;48.702;8.884;2022-09-30T07:59:03;9.70;99.00
74822;DHT22;63353;48.702;8.884;2022-09-30T08:01:29;9.70;98.90
74822;DHT22;63353;48.702;8.884;2022-09-30T08:04:02;9.80;99.30
74822;DHT22;63353;48.702;8.884;2022-09-30T08:06:29;9.90;98.00
74822;DHT22;63353;48.702;8.884;2022-09-30T08:08:56;10.00;97.50
74822;DHT22;63353;48.702;8.884;2022-09-30T08:11:23;10.10;97.50
74822;DHT22;63353;48.702;8.884;2022-09-30T08:13:54;10.10;96.70
74822;DHT22;63353;48.702;8.884;2022-09-30T08:16:21;10.20;96.20
74822;DHT22;63353;48.702;8.884;2022-09-30T08:18:47;10.20;95.80
74822;DHT22;63353;48.702;8.884;2022-09-30T08:21:13;10.30;96.20
74822;DHT22;63353;48.702;8.884;2022-09-30T08:23:39;10.40;96.70
74822;DHT22;63353;48.702;8.884;2022-09-30T08:26:10;10.50;96.30
74822;DHT22;63353;48.702;8.884;2022-09-30T08:28:37;10.50;96.10
74822;DHT22;63353;48.702;8.884;2022-09-30T08:31:11;10.80;95.80
74822;DHT22;63353;48.702;8.884;2022-09-30T08:33:38;10.90;94.90
74822;DHT22;63353;48.702;8.884;2022-09-30T08:36:05;10.90;95.60
74822;DHT22;63353;48.702;8.884;2022-09-30T08:38:32;10.90;94.50
74822;DHT22;63353;48.702;8.884;2022-09-30T08:47:16;11.30;93.30
74822;DHT22;63353;48.702;8.884;2022-09-30T08:52:40;11.70;94.50
74822;DHT22;63353;48.702;8.884;2022-09-30T08:55:07;12.20;93.90
74822;DHT22;63353;48.702;8.884;2022-09-30T08:57:43;12.40;90.40
74822;DHT22;63353;48.702;8.884;2022-09-30T09:00:15;12.10;89.90
74822;DHT22;63353;48.702;8.884;2022-09-30T09:02:51;12.50;91.90
74822;DHT22;63353;48.702;8.884;2022-09-30T09:05:46;12.80;92.10
74822;DHT22;63353;48.702;8.884;2022-09-30T09:24:46;14.00;80.90
74822;DHT22;63353;48.702;8.884;2022-09-30T09:27:26;14.40;84.50
74822;DHT22;63353;48.702;8.884;2022-09-30T09:30:00;14.30;80.80
74822;DHT22;63353;48.702;8.884;2022-09-30T09:32:27;14.60;78.60
74822;DHT22;63353;48.702;8.884;2022-09-30T09:35:00;14.40;76.20
74822;DHT22;63353;48.702;8.884;2022-09-30T09:37:43;14.60;77.70
74822;DHT22;63353;48.702;8.884;2022-09-30T09:46:41;15.10;75.80
74822;DHT22;63353;48.702;8.884;2022-09-30T09:54:32;15.70;74.20
74822;DHT22;63353;48.702;8.884;2022-09-30T09:57:07;15.80;74.40
74822;DHT22;63353;48.702;8.884;2022-09-30T09:59:35;15.80;71.90
74822;DHT22;63353;48.702;8.884;2022-09-30T10:02:01;15.90;72.40
74822;DHT22;63353;48.702;8.884;2022-09-30T10:04:28;15.90;71.60
74822;DHT22;63353;48.702;8.884;2022-09-30T10:06:59;16.20;72.60
74822;DHT22;63353;48.702;8.884;2022-09-30T10:09:31;16.30;73.30
74822;DHT22;63353;48.702;8.884;2022-09-30T10:14:37;16.60;70.40
74822;DHT22;63353;48.702;8.884;2022-09-30T10:17:21;16.70;70.20
74822;DHT22;63353;48.702;8.884;2022-09-30T10:19:53;16.60;70.80
74822;DHT22;63353;48.702;8.884;2022-09-30T10:22:26;16.60;69.80
74822;DHT22;63353;48.702;8.884;2022-09-30T10:31:05;16.60;61.50
74822;DHT22;63353;48.702;8.884;2022-09-30T10:33:44;16.90;64.60
74822;DHT22;63353;48.702;8.884;2022-09-30T10:36:18;16.80;64.90
74822;DHT22;63353;48.702;8.884;2022-09-30T10:38:57;16.80;65.40
74822;DHT22;63353;48.702;8.884;2022-09-30T10:41:26;16.40;64.30
74822;DHT22;63353;48.702;8.884;2022-09-30T10:43:55;16.40;66.40
74822;DHT22;63353;48.702;8.884;2022-09-30T10:46:24;16.20;64.50
74822;DHT22;63353;48.702;8.884;2022-09-30T10:48:52;16.20;68.50
74822;DHT22;63353;48.702;8.884;2022-09-30T10:51:30;16.60;68.80
74822;DHT22;63353;48.702;8.884;2022-09-30T10:53:58;16.90;66.70
74822;DHT22;63353;48.702;8.884;2022-09-30T10:56:32;16.90;66.50
74822;DHT22;63353;48.702;8.884;2022-09-30T10:58:58;16.60;63.80
74822;DHT22;63353;48.702;8.884;2022-09-30T11:01:34;16.60;66.40
74822;DHT22;63353;48.702;8.884;2022-09-30T11:04:22;16.80;63.70
74822;DHT22;63353;48.702;8.884;2022-09-30T11:06:52;16.50;61.60
74822;DHT22;63353;48.702;8.884;2022-09-30T11:09:45;16.20;63.80
74822;DHT22;63353;48.702;8.884;2022-09-30T11:15:33;16.80;62.20
74822;DHT22;63353;48.702;8.884;2022-09-30T11:18:12;16.80;61.90
74822;DHT22;63353;48.702;8.884;2022-09-30T11:20:44;16.70;63.70
74822;DHT22;63353;48.702;8.884;2022-09-30T11:26:22;16.90;64.50
74822;DHT22;63353;48.702;8.884;2022-09-30T11:42:47;15.90;69.20
74822;DHT22;63353;48.702;8.884;2022-09-30T11:57:22;16.10;67.70
74822;DHT22;63353;48.702;8.884;2022-09-30T12:05:51;16.40;65.50
74822;DHT22;63353;48.702;8.884;2022-09-30T12:10:56;16.40;64.10
74822;DHT22;63353;48.702;8.884;2022-09-30T12:13:36;16.30;62.30
74822;DHT22;63353;48.702;8.884;2022-09-30T12:16:07;16.10;64.30
74822;DHT22;63353;48.702;8.884;2022-09-30T12:18:38;16.20;62.90
74822;DHT22;63353;48.702;8.884;2022-09-30T12:23:49;16.10;68.50
74822;DHT22;63353;48.702;8.884;2022-09-30T12:26:19;16.10;64.90
74822;DHT22;63353;48.702;8.884;2022-09-30T12:47:59;15.50;63.60
74822;DHT22;63353;48.702;8.884;2022-09-30T12:50:31;15.70;67.10
74822;DHT22;63353;48.702;8.884;2022-09-30T12:53:14;15.80;62.10
74822;DHT22;63353;48.702;8.884;2022-09-30T12:55:42;15.60;64.40
74822;DHT22;63353;48.702;8.884;2022-09-30T12:58:21;15.70;63.70
74822;DHT22;63353;48.702;8.884;2022-09-30T13:14:29;15.40;66.90
74822;DHT22;63353;48.702;8.884;2022-09-30T13:19:42;15.50;65.10
74822;DHT22;63353;48.702;8.884;2022-09-30T13:30:32;15.50;71.90
74822;DHT22;63353;48.702;8.884;2022-09-30T13:44:19;17.50;60.20
74822;DHT22;63353;48.702;8.884;2022-09-30T13:47:04;16.90;59.20
74822;DHT22;63353;48.702;8.884;2022-09-30T13:52:23;16.60;61.20
74822;DHT22;63353;48.702;8.884;2022-09-30T13:54:50;16.40;62.10
74822;DHT22;63353;48.702;8.884;2022-09-30T13:57:24;16.20;66.00
74822;DHT22;63353;48.702;8.884;2022-09-30T14:00:09;16.20;66.80
74822;DHT22;63353;48.702;8.884;2022-09-30T14:02:58;16.30;64.80
74822;DHT22;63353;48.702;8.884;2022-09-30T14:05:43;16.10;63.40
74822;DHT22;63353;48.702;8.884;2022-09-30T14:22:18;15.50;65.50
74822;DHT22;63353;48.702;8.884;2022-09-30T14:24:44;15.50;68.90
74822;DHT22;63353;48.702;8.884;2022-09-30T14:30:16;15.70;67.70
74822;DHT22;63353;48.702;8.884;2022-09-30T14:32:47;15.70;66.80
74822;DHT22;63353;48.702;8.884;2022-09-30T14:35:33;15.80;68.60
74822;DHT22;63353;48.702;8.884;2022-09-30T14:38:01;15.70;64.70
74822;DHT22;63353;48.702;8.884;2022-09-30T14:40:33;15.50;62.40
74822;DHT22;63353;48.702;8.884;2022-09-30T14:43:03;15.40;64.60
74822;DHT22;63353;48.702;8.884;2022-09-30T14:45:35;15.30;66.30
74822;DHT22;63353;48.702;8.884;2022-09-30T14:48:31;15.20;66.20
74822;DHT22;63353;48.702;8.884;2022-09-30T14:53:34;15.70;68.70
74822;DHT22;63353;48.702;8.884;2022-09-30T14:56:02;15.80;68.00
74822;DHT22;63353;48.702;8.884;2022-09-30T14:58:38;16.00;65.50
74822;DHT22;63353;48.702;8.884;2022-09-30T15:01:14;16.10;65.40
74822;DHT22;63353;48.702;8.884;2022-09-30T15:03:51;16.80;65.20
74822;DHT22;63353;48.702;8.884;2022-09-30T15:06:20;17.40;61.30
74822;DHT22;63353;48.702;8.884;2022-09-30T15:08:48;17.80;59.40
74822;DHT22;63353;48.702;8.884;2022-09-30T15:11:19;17.60;58.70
74822;DHT22;63353;48.702;8.884;2022-09-30T15:13:46;17.20;59.50
74822;DHT22;63353;48.702;8.884;2022-09-30T15:16:28;16.90;62.60
74822;DHT22;63353;48.702;8.884;2022-09-30T15:18:55;16.70;62.50
74822;DHT22;63353;48.702;8.884;2022-09-30T15:21:21;16.60;63.40
74822;DHT22;63353;48.702;8.884;2022-09-30T15:23:50;17.20;64.70
74822;DHT22;63353;48.702;8.884;2022-09-30T15:26:17;17.90;59.30
74822;DHT22;63353;48.702;8.884;2022-09-30T15:28:43;18.30;56.30
74822;DHT22;63353;48.702;8.884;2022-09-30T15:33:46;19.40;57.90
74822;DHT22;63353;48.702;8.884;2022-09-30T15:36:17;19.10;54.50
74822;DHT22;63353;48.702;8.884;2022-09-30T15:38:50;19.10;56.60
74822;DHT22;63353;48.702;8.884;2022-09-30T15:41:16;18.70;55.50
74822;DHT22;63353;48.702;8.884;2022-09-30T15:43:48;18.80;58.70
74822;DHT22;63353;48.702;8.884;2022-09-30T15:46:29;19.80;55.40
74822;DHT22;63353;48.702;8.884;2022-09-30T15:49:00;21.10;50.80
74822;DHT22;63353;48.702;8.884;2022-09-30T15:51:32;22.60;50.20
74822;DHT22;63353;48.702;8.884;2022-09-30T15:54:01;23.70;45.40
74822;DHT22;63353;48.702;8.884;2022-09-30T15:56:41;24.90;40.70
74822;DHT22;63353;48.702;8.884;2022-09-30T15:59:09;25.50;42.10
74822;DHT22;63353;48.702;8.884;2022-09-30T16:01:40;26.00;40.60
74822;DHT22;63353;48.702;8.884;2022-09-30T16:04:09;26.50;39.80
74822;DHT22;63353;48.702;8.884;2022-09-30T16:06:51;26.50;39.40
74822;DHT22;63353;48.702;8.884;2022-09-30T16:09:22;25.40;39.70
74822;DHT22;63353;48.702;8.884;2022-09-30T16:14:42;25.10;40.80
74822;DHT22;63353;48.702;8.884;2022-09-30T16:17:16;24.90;42.00
74822;DHT22;63353;48.702;8.884;2022-09-30T16:19:50;23.90;42.10
74822;DHT22;63353;48.702;8.884;2022-09-30T16:25:17;22.10;45.80
74822;DHT22;63353;48.702;8.884;2022-09-30T16:27:43;22.70;44.70
74822;DHT22;63353;48.702;8.884;2022-09-30T16:30:13;22.60;45.00
74822;DHT22;63353;48.702;8.884;2022-09-30T16:32:42;22.50;45.60
74822;DHT22;63353;48.702;8.884;2022-09-30T16:35:28;22.00;45.30
74822;DHT22;63353;48.702;8.884;2022-09-30T16:37:59;20.40;49.30
74822;DHT22;63353;48.702;8.884;2022-09-30T16:40:26;19.20;53.30
74822;DHT22;63353;48.702;8.884;2022-09-30T16:42:53;18.00;56.20
74822;DHT22;63353;48.702;8.884;2022-09-30T16:45:20;17.10;58.50
74822;DHT22;63353;48.702;8.884;2022-09-30T16:47:46;16.10;61.50
74822;DHT22;63353;48.702;8.884;2022-09-30T16:50:24;15.30;64.40
74822;DHT22;63353;48.702;8.884;2022-09-30T16:52:52;14.60;65.90
74822;DHT22;63353;48.702;8.884;2022-09-30T16:55:18;14.00;68.70
74822;DHT22;63353;48.702;8.884;2022-09-30T16:57:44;13.70;71.70
74822;DHT22;63353;48.702;8.884;2022-09-30T17:00:13;13.20;73.10
74822;DHT22;63353;48.702;8.884;2022-09-30T17:02:44;12.80;75.20
74822;DHT22;63353;48.702;8.884;2022-09-30T17:05:15;12.50;76.40
74822;DHT22;63353;48.702;8.884;2022-09-30T17:07:46;12.10;78.10
74822;DHT22;63353;48.702;8.884;2022-09-30T17:10:30;11.90;79.60
74822;DHT22;63353;48.702;8.884;2022-09-30T17:12:59;11.70;81.30
74822;DHT22;63353;48.702;8.884;2022-09-30T17:15:26;11.40;83.70
74822;DHT22;63353;48.702;8.884;2022-09-30T17:17:52;11.20;85.80
74822;DHT22;63353;48.702;8.884;2022-09-30T17:20:19;10.90;88.20
74822;DHT22;63353;48.702;8.884;2022-09-30T17:22:45;10.70;89.40
74822;DHT22;63353;48.702;8.884;2022-09-30T17:25:11;10.50;90.40
74822;DHT22;63353;48.702;8.884;2022-09-30T17:27:37;10.30;90.50
74822;DHT22;63353;48.702;8.884;2022-09-30T17:30:04;10.20;91.50
74822;DHT22;63353;48.702;8.884;2022-09-30T17:32:31;10.10;91.80
74822;DHT22;63353;48.702;8.884;2022-09-30T17:34:57;10.00;91.40
74822;DHT22;63353;48.702;8.884;2022-09-30T17:37:22;9.80;92.00
74822;DHT22;63353;48.702;8.884;2022-09-30T17:39:48;9.70;92.60
74822;DHT22;63353;48.702;8.884;2022-09-30T17:42:14;9.60;93.30
74822;DHT22;63353;48.702;8.884;2022-09-30T17:44:59;9.50;93.70
74822;DHT22;63353;48.702;8.884;2022-09-30T17:47:25;9.40;94.40
74822;DHT22;63353;48.702;8.884;2022-09-30T17:49:51;9.30;94.70
74822;DHT22;63353;48.702;8.884;2022-09-30T17:52:19;9.20;95.30
74822;DHT22;63353;48.702;8.884;2022-09-30T17:54:45;9.10;95.70
74822;DHT22;63353;48.702;8.884;2022-09-30T17:57:12;9.00;96.00
74822;DHT22;63353;48.702;8.884;2022-09-30T17:59:37;8.90;96.10
74822;DHT22;63353;48.702;8.884;2022-09-30T18:02:03;8.80;96.20
74822;DHT22;63353;48.702;8.884;2022-09-30T18:04:29;8.70;96.60
74822;DHT22;63353;48.702;8.884;2022-09-30T18:06:55;8.70;96.80
74822;DHT22;63353;48.702;8.884;2022-09-30T18:09:21;8.70;97.20
74822;DHT22;63353;48.702;8.884;2022-09-30T18:11:47;8.60;97.50
74822;DHT22;63353;48.702;8.884;2022-09-30T18:14:15;8.60;97.40
74822;DHT22;63353;48.702;8.884;2022-09-30T18:16:40;8.50;97.40
74822;DHT22;63353;48.702;8.884;2022-09-30T18:19:06;8.50;97.50
74822;DHT22;63353;48.702;8.884;2022-09-30T18:21:34;8.40;97.70
74822;DHT22;63353;48.702;8.884;2022-09-30T18:24:01;8.40;97.90
74822;DHT22;63353;48.702;8.884;2022-09-30T18:26:28;8.40;98.40
74822;DHT22;63353;48.702;8.884;2022-09-30T18:28:55;8.40;98.80
74822;DHT22;63353;48.702;8.884;2022-09-30T18:31:24;8.40;99.00
74822;DHT22;63353;48.702;8.884;2022-09-30T18:33:54;8.30;99.00
74822;DHT22;63353;48.702;8.884;2022-09-30T18:36:21;8.30;98.90
74822;DHT22;63353;48.702;8.884;2022-09-30T18:38:47;8.30;99.10
74822;DHT22;63353;48.702;8.884;2022-09-30T18:41:13;8.30;99.40
74822;DHT22;63353;48.702;8.884;2022-09-30T18:43:40;8.20;99.40
74822;DHT22;63353;48.702;8.884;2022-09-30T18:46:09;8.20;99.60
74822;DHT22;63353;48.702;8.884;2022-09-30T18:48:37;8.20;99.80
74822;DHT22;63353;48.702;8.884;2022-09-30T18:51:04;8.20;99.80
74822;DHT22;63353;48.702;8.884;2022-09-30T18:53:32;8.20;99.70
74822;DHT22;63353;48.702;8.884;2022-09-30T18:56:03;8.20;99.80
74822;DHT22;63353;48.702;8.884;2022-09-30T18:58:29;8.10;99.90
74822;DHT22;63353;48.702;8.884;2022-09-30T19:01:00;8.10;99.90
74822;DHT22;63353;48.702;8.884;2022-09-30T19:03:31;8.10;99.90
74822;DHT22;63353;48.702;8.884;2022-09-30T19:05:57;8.10;99.90
74822;DHT22;63353;48.702;8.884;2022-09-30T19:08:25;8.00;99.90
74822;DHT22;63353;48.702;8.884;2022-09-30T19:10:51;7.90;99.90
74822;DHT22;63353;48.702;8.884;2022-09-30T19:13:19;7.90;99.90
74822;DHT22;63353;48.702;8.884;2022-09-30T19:15:44;7.70;99.90
74822;DHT22;63353;48.702;8.884;2022-09-30T19:18:10;7.70;99.90
74822;DHT22;63353;48.702;8.884;2022-09-30T19:20:36;7.60;99.90
74822;DHT22;63353;48.702;8.884;2022-09-30T19:23:03;7.60;99.90
74822;DHT22;63353;48.702;8.884;2022-09-30T19:25:31;7.70;99.90
74822;DHT22;63353;48.702;8.884;2022-09-30T19:27:56;7.70;99.90
74822;DHT22;63353;48.702;8.884;2022-09-30T19:30:24;7.60;99.90
74822;DHT22;63353;48.702;8.884;2022-09-30T19:32:55;7.60;99.90
74822;DHT22;63353;48.702;8.884;2022-09-30T19:35:24;7.50;99.90
74822;DHT22;63353;48.702;8.884;2022-09-30T19:37:50;7.50;99.90
74822;DHT22;63353;48.702;8.884;2022-09-30T19:40:16;7.50;99.90
74822;DHT22;63353;48.702;8.884;2022-09-30T19:42:42;7.40;99.90
74822;DHT22;63353;48.702;8.884;2022-09-30T19:45:10;7.40;99.90
74822;DHT22;63353;48.702;8.884;2022-09-30T19:47:36;7.30;99.90
74822;DHT22;63353;48.702;8.884;2022-09-30T19:50:02;7.10;99.90